Algoa, Arkansas
Current Conditions -  °F | °C
As of 11:56 AM on Thursday 29 Jan 2015 (Local Time) from KM19 Reporting Station
Clear Clear  
Wind Chill: 60°   Ceiling: Unl
Heat Index: 60°   Visibility: 10mi
Dew Point: 40°   Wind: 18mph
Humidity: 48%   Direction: 320°NW
Pressure: 30.17"   Gusts: 25mph
Location:  35.5678°N, 91.2073°W
Report Text: KM19 291756Z AUTO 32016G22KT 10SM CLR 16/04 A3017 RMK AO2 53031 T01550044 10166 20072 SLP215
Loading
Personal Weather Stations






























Interactive Weather Map New forecast layout! Learn more

10-Day Weather Forecast

Advertisements
Track Severe Weather on mobile